createdAt,value
2022-12-31T00:01:20.364Z,11.80
2022-12-31T00:03:47.673Z,11.90
2022-12-31T00:06:27.333Z,13.60
2022-12-31T00:08:55.882Z,11.90
2022-12-31T00:11:25.870Z,11.90
2022-12-31T00:13:53.643Z,11.90
2022-12-31T00:16:25.925Z,12.00
2022-12-31T00:18:54.734Z,12.00
2022-12-31T00:21:22.366Z,12.00
2022-12-31T00:23:49.609Z,12.10
2022-12-31T00:26:19.240Z,12.10
2022-12-31T00:28:45.922Z,12.10
2022-12-31T00:31:15.647Z,12.10
2022-12-31T00:33:43.165Z,12.10
2022-12-31T00:36:13.203Z,12.10
2022-12-31T00:38:42.006Z,12.10
2022-12-31T00:41:08.946Z,12.10
2022-12-31T00:43:36.472Z,12.10
2022-12-31T00:46:03.974Z,12.10
2022-12-31T00:48:31.194Z,12.10
2022-12-31T00:50:57.932Z,12.10
2022-12-31T00:53:25.885Z,12.10
2022-12-31T00:55:52.890Z,12.10
2022-12-31T00:58:19.635Z,12.10
2022-12-31T01:00:46.221Z,12.20
2022-12-31T01:03:12.904Z,12.20
2022-12-31T01:05:39.539Z,12.20
2022-12-31T01:08:06.235Z,12.30
2022-12-31T01:10:51.484Z,12.30
2022-12-31T01:13:18.367Z,12.30
2022-12-31T01:15:45.034Z,12.30
2022-12-31T01:18:11.804Z,12.40
2022-12-31T01:20:41.293Z,12.30
2022-12-31T01:23:08.428Z,12.40
2022-12-31T01:25:36.636Z,12.40
2022-12-31T01:28:04.423Z,12.50
2022-12-31T01:30:31.305Z,12.50
2022-12-31T01:32:58.072Z,12.50
2022-12-31T01:35:25.380Z,12.50
2022-12-31T01:37:52.016Z,12.50
2022-12-31T01:40:19.666Z,12.50
2022-12-31T01:42:54.423Z,12.50
2022-12-31T01:45:21.263Z,12.50
2022-12-31T01:47:51.597Z,12.60
2022-12-31T01:50:28.754Z,12.60
2022-12-31T01:52:59.048Z,12.50
2022-12-31T01:55:36.287Z,12.60
2022-12-31T01:58:10.817Z,12.50
2022-12-31T02:00:37.660Z,12.50
2022-12-31T02:03:07.533Z,12.50
2022-12-31T02:05:50.039Z,12.50
2022-12-31T02:08:17.530Z,12.60
2022-12-31T02:10:44.482Z,12.60
2022-12-31T02:13:11.290Z,12.60
2022-12-31T02:16:13.225Z,12.60
2022-12-31T02:19:05.500Z,12.60
2022-12-31T02:21:32.091Z,12.70
2022-12-31T02:24:31.120Z,12.70
2022-12-31T02:27:31.847Z,12.70
2022-12-31T02:30:19.332Z,12.70
2022-12-31T02:32:57.689Z,12.70
2022-12-31T02:35:32.949Z,12.70
2022-12-31T02:38:05.535Z,12.70
2022-12-31T02:40:34.812Z,12.80
2022-12-31T02:43:01.510Z,12.70
2022-12-31T02:45:39.809Z,12.70
2022-12-31T02:48:38.793Z,12.80
2022-12-31T02:51:13.186Z,12.70
2022-12-31T02:54:10.285Z,12.80
2022-12-31T02:56:52.024Z,12.70
2022-12-31T02:59:56.457Z,12.70
2022-12-31T03:02:24.876Z,12.60
2022-12-31T03:04:54.396Z,12.60
2022-12-31T03:07:27.105Z,12.60
2022-12-31T03:09:54.885Z,12.50
2022-12-31T03:12:42.343Z,12.50
2022-12-31T03:15:19.867Z,12.50
2022-12-31T03:17:48.574Z,12.50
2022-12-31T03:20:33.737Z,12.50
2022-12-31T03:23:00.786Z,12.50
2022-12-31T03:25:37.866Z,15.40
2022-12-31T03:28:10.106Z,12.40
2022-12-31T03:30:38.976Z,12.60
2022-12-31T03:33:06.783Z,12.40
2022-12-31T03:35:36.450Z,12.40
2022-12-31T03:38:04.366Z,12.40
2022-12-31T03:40:32.534Z,12.50
2022-12-31T03:42:59.254Z,12.50
2022-12-31T03:45:25.896Z,12.50
2022-12-31T03:47:52.496Z,12.50
2022-12-31T03:50:20.015Z,12.40
2022-12-31T03:52:47.125Z,12.40
2022-12-31T03:55:13.906Z,12.40
2022-12-31T03:57:40.846Z,12.40
2022-12-31T04:00:10.725Z,12.40
2022-12-31T04:02:37.552Z,12.40
2022-12-31T04:05:04.578Z,11.80
2022-12-31T04:07:31.463Z,12.30
2022-12-31T04:09:58.470Z,12.30
2022-12-31T04:12:25.158Z,12.30
2022-12-31T04:14:51.779Z,12.30
2022-12-31T04:17:18.407Z,12.30
2022-12-31T04:19:45.052Z,12.30
2022-12-31T04:22:11.696Z,12.30
2022-12-31T04:24:38.312Z,12.30
2022-12-31T04:27:07.815Z,12.30
2022-12-31T04:29:35.422Z,12.30
2022-12-31T04:32:02.817Z,12.40
2022-12-31T04:34:29.553Z,12.40
2022-12-31T04:36:56.194Z,12.40
2022-12-31T04:39:23.343Z,12.40
2022-12-31T04:41:50.456Z,12.40
2022-12-31T04:44:17.607Z,12.40
2022-12-31T04:46:44.685Z,12.40
2022-12-31T04:49:11.539Z,12.40
2022-12-31T04:51:38.719Z,12.40
2022-12-31T04:54:05.781Z,12.40
2022-12-31T04:56:32.970Z,9.90
2022-12-31T04:58:59.673Z,12.50
2022-12-31T05:01:26.524Z,12.50
2022-12-31T05:03:53.398Z,12.40
2022-12-31T05:06:22.648Z,12.50
2022-12-31T05:08:50.135Z,12.50
2022-12-31T05:11:17.677Z,12.50
2022-12-31T05:13:44.461Z,12.50
2022-12-31T05:16:11.526Z,12.50
2022-12-31T05:18:38.547Z,12.50
2022-12-31T05:21:06.103Z,12.40
2022-12-31T05:23:32.813Z,12.50
2022-12-31T05:25:59.735Z,12.50
2022-12-31T05:28:26.562Z,12.40
2022-12-31T05:30:53.541Z,12.40
2022-12-31T05:33:20.673Z,13.00
2022-12-31T05:35:47.453Z,12.50
2022-12-31T05:38:14.124Z,12.40
2022-12-31T05:40:40.850Z,12.50
2022-12-31T05:43:07.577Z,12.50
2022-12-31T05:45:34.327Z,12.50
2022-12-31T05:48:01.349Z,12.50
2022-12-31T05:50:28.100Z,12.50
2022-12-31T05:52:54.738Z,12.50
2022-12-31T05:55:21.555Z,12.50
2022-12-31T05:57:48.266Z,12.50
2022-12-31T06:00:15.610Z,12.50
2022-12-31T06:02:42.263Z,12.50
2022-12-31T06:05:09.355Z,12.50
2022-12-31T06:07:36.124Z,12.50
2022-12-31T06:10:02.784Z,12.40
2022-12-31T06:12:29.484Z,12.40
2022-12-31T06:14:56.190Z,12.40
2022-12-31T06:17:22.844Z,12.30
2022-12-31T06:19:49.509Z,12.30
2022-12-31T06:22:16.403Z,12.30
2022-12-31T06:24:43.189Z,12.20
2022-12-31T06:27:10.152Z,12.20
2022-12-31T06:29:36.953Z,12.10
2022-12-31T06:32:03.881Z,12.10
2022-12-31T06:34:30.653Z,12.10
2022-12-31T06:36:57.788Z,12.10
2022-12-31T06:39:24.636Z,12.10
2022-12-31T06:41:51.408Z,12.10
2022-12-31T06:44:18.324Z,12.20
2022-12-31T06:46:45.055Z,12.10
2022-12-31T06:49:11.891Z,12.00
2022-12-31T06:51:38.568Z,12.00
2022-12-31T06:54:05.386Z,14.30
2022-12-31T06:56:34.859Z,12.10
2022-12-31T06:59:02.939Z,12.10
2022-12-31T07:01:41.680Z,12.00
2022-12-31T07:04:35.556Z,12.00
2022-12-31T07:07:21.031Z,12.00
2022-12-31T07:10:12.668Z,12.00
2022-12-31T07:12:56.500Z,12.00
2022-12-31T07:16:01.673Z,12.00
2022-12-31T07:18:34.504Z,12.00
2022-12-31T07:21:01.415Z,11.90
2022-12-31T07:23:28.474Z,11.90
2022-12-31T07:26:04.458Z,11.90
2022-12-31T07:28:40.575Z,11.90
2022-12-31T07:31:13.244Z,11.90
2022-12-31T07:34:18.630Z,11.90
2022-12-31T07:37:08.070Z,11.90
2022-12-31T07:39:39.609Z,11.90
2022-12-31T07:42:32.572Z,11.80
2022-12-31T07:45:07.185Z,11.90
2022-12-31T07:47:34.202Z,11.90
2022-12-31T07:50:01.403Z,11.90
2022-12-31T07:52:28.396Z,11.90
2022-12-31T07:54:55.152Z,11.90
2022-12-31T07:57:31.823Z,11.90
2022-12-31T08:00:12.979Z,11.90
2022-12-31T08:02:58.527Z,11.90
2022-12-31T08:05:49.533Z,11.90
2022-12-31T08:08:38.756Z,11.80
2022-12-31T08:11:17.807Z,11.80
2022-12-31T08:13:45.176Z,11.80
2022-12-31T08:16:13.959Z,11.80
2022-12-31T08:18:41.273Z,11.80
2022-12-31T08:21:22.637Z,12.20
2022-12-31T08:24:10.894Z,12.60
2022-12-31T08:26:40.954Z,12.60
2022-12-31T08:29:15.554Z,12.70
2022-12-31T08:32:19.903Z,12.80
2022-12-31T08:35:24.520Z,13.00
2022-12-31T08:38:09.927Z,12.60
2022-12-31T08:41:07.860Z,12.40
2022-12-31T08:43:42.550Z,12.20
2022-12-31T08:46:23.552Z,12.20
2022-12-31T08:48:50.378Z,12.10
2022-12-31T08:51:25.601Z,12.10
2022-12-31T08:53:53.436Z,12.20
2022-12-31T08:56:32.493Z,12.20
2022-12-31T08:59:26.941Z,12.10
2022-12-31T09:02:20.854Z,12.10
2022-12-31T09:05:13.748Z,12.10
2022-12-31T09:07:51.966Z,12.20
2022-12-31T09:10:44.531Z,12.30
2022-12-31T09:13:40.397Z,12.30
2022-12-31T09:16:32.180Z,12.40
2022-12-31T09:18:58.837Z,12.30
2022-12-31T09:21:25.644Z,12.30
2022-12-31T09:23:52.528Z,12.40
2022-12-31T09:26:28.046Z,12.40
2022-12-31T09:29:29.771Z,12.40
2022-12-31T09:32:08.283Z,12.50
2022-12-31T09:34:50.107Z,12.60
2022-12-31T09:37:24.878Z,12.80
2022-12-31T09:39:53.210Z,12.90
2022-12-31T09:42:37.881Z,13.50
2022-12-31T09:45:47.280Z,14.20
2022-12-31T09:48:51.834Z,14.20
2022-12-31T09:51:36.498Z,13.80
2022-12-31T09:54:33.003Z,13.50
2022-12-31T09:57:26.906Z,13.30
2022-12-31T10:00:01.422Z,13.00
2022-12-31T10:02:55.732Z,13.00
2022-12-31T10:05:25.430Z,12.80
2022-12-31T10:07:58.644Z,12.80
2022-12-31T10:10:41.748Z,12.70
2022-12-31T10:13:34.527Z,12.60
2022-12-31T10:16:30.981Z,12.60
2022-12-31T10:19:33.598Z,12.60
2022-12-31T10:22:33.408Z,12.60
2022-12-31T10:25:02.760Z,12.60
2022-12-31T10:27:32.523Z,12.60
2022-12-31T10:30:19.379Z,12.60
2022-12-31T10:33:10.531Z,12.60
2022-12-31T10:35:51.829Z,12.60
2022-12-31T10:38:44.887Z,12.50
2022-12-31T10:41:48.844Z,12.50
2022-12-31T10:44:49.500Z,12.70
2022-12-31T10:47:38.460Z,12.70
2022-12-31T10:50:19.988Z,13.20
2022-12-31T10:53:12.537Z,13.50
2022-12-31T10:56:15.924Z,13.60
2022-12-31T10:59:07.506Z,13.60
2022-12-31T11:01:40.137Z,13.30
2022-12-31T11:04:26.983Z,13.00
2022-12-31T11:07:25.024Z,12.90
2022-12-31T11:10:04.626Z,12.90
2022-12-31T11:12:49.482Z,12.90
2022-12-31T11:15:21.837Z,12.90
2022-12-31T11:18:15.839Z,12.80
2022-12-31T11:20:57.622Z,12.90
2022-12-31T11:23:37.550Z,13.00
2022-12-31T11:26:15.269Z,13.00
2022-12-31T11:28:45.076Z,13.00
2022-12-31T11:31:39.364Z,13.10
2022-12-31T11:34:15.009Z,13.10
2022-12-31T11:37:03.246Z,13.10
2022-12-31T11:39:44.883Z,13.20
2022-12-31T11:42:34.369Z,13.20
2022-12-31T11:45:38.744Z,13.30
2022-12-31T11:48:30.017Z,13.40
2022-12-31T11:50:57.425Z,13.50
2022-12-31T11:53:57.560Z,13.50
2022-12-31T11:56:28.357Z,13.50
2022-12-31T11:58:56.439Z,13.60
2022-12-31T12:01:27.278Z,13.60
2022-12-31T12:03:54.077Z,13.60
2022-12-31T12:06:28.042Z,13.70
2022-12-31T12:09:04.558Z,13.60
2022-12-31T12:11:35.476Z,13.70
2022-12-31T12:14:18.093Z,13.70
2022-12-31T12:16:44.763Z,13.70
2022-12-31T12:19:18.523Z,13.80
2022-12-31T12:21:49.534Z,14.00
2022-12-31T12:24:26.649Z,14.10
2022-12-31T12:26:53.470Z,14.20
2022-12-31T12:29:23.628Z,14.20
2022-12-31T12:32:03.973Z,14.20
2022-12-31T12:34:35.164Z,14.30
2022-12-31T12:37:02.468Z,14.40
2022-12-31T12:39:32.066Z,14.30
2022-12-31T12:42:11.560Z,14.40
2022-12-31T12:44:40.108Z,14.40
2022-12-31T12:47:12.144Z,14.40
2022-12-31T12:49:42.326Z,14.40
2022-12-31T12:52:11.760Z,14.40
2022-12-31T12:55:09.061Z,14.40
2022-12-31T12:57:47.506Z,14.40
2022-12-31T13:00:23.425Z,14.50
2022-12-31T13:03:08.924Z,14.50
2022-12-31T13:05:41.350Z,14.50
2022-12-31T13:08:40.511Z,14.50
2022-12-31T13:11:38.774Z,14.60
2022-12-31T13:14:24.198Z,14.50
2022-12-31T13:16:50.883Z,14.50
2022-12-31T13:19:36.618Z,14.60
2022-12-31T13:22:27.713Z,14.50
2022-12-31T13:25:35.711Z,14.50
2022-12-31T13:28:11.157Z,14.50
2022-12-31T13:30:44.486Z,14.50
2022-12-31T13:33:25.473Z,14.50
2022-12-31T13:36:03.263Z,14.50
2022-12-31T13:38:38.632Z,14.50
2022-12-31T13:41:30.243Z,14.50
2022-12-31T13:44:00.963Z,14.50
2022-12-31T13:46:33.805Z,14.60
2022-12-31T13:49:04.718Z,14.50
2022-12-31T13:51:46.971Z,14.40
2022-12-31T13:54:44.473Z,14.40
2022-12-31T13:57:34.693Z,14.40
2022-12-31T14:00:05.609Z,14.40
2022-12-31T14:02:37.018Z,14.40
2022-12-31T14:05:34.255Z,14.40
2022-12-31T14:08:02.965Z,14.40
2022-12-31T14:10:41.673Z,14.40
2022-12-31T14:13:42.420Z,14.40
2022-12-31T14:16:33.548Z,14.50
2022-12-31T14:19:39.381Z,14.50
2022-12-31T14:22:27.038Z,14.50
2022-12-31T14:24:55.370Z,14.50
2022-12-31T14:27:42.055Z,14.50
2022-12-31T14:30:30.680Z,14.50
2022-12-31T14:33:11.929Z,14.60
2022-12-31T14:36:14.679Z,14.60
2022-12-31T14:39:03.085Z,14.70
2022-12-31T14:41:44.727Z,14.70
2022-12-31T14:44:36.488Z,14.70
2022-12-31T14:47:46.123Z,14.70
2022-12-31T14:50:20.941Z,14.70
2022-12-31T14:53:09.486Z,14.80
2022-12-31T14:55:40.912Z,14.80
2022-12-31T14:58:33.399Z,14.80
2022-12-31T15:01:03.341Z,14.80
2022-12-31T15:03:45.403Z,14.80
2022-12-31T15:06:38.742Z,15.90
2022-12-31T15:09:46.597Z,14.70
2022-12-31T15:12:47.807Z,14.70
2022-12-31T15:15:41.125Z,14.70
2022-12-31T15:18:38.918Z,14.70
2022-12-31T15:21:24.108Z,14.60
2022-12-31T15:23:51.140Z,14.60
2022-12-31T15:26:32.153Z,14.60
2022-12-31T15:29:05.455Z,14.60
2022-12-31T15:31:34.693Z,14.60
2022-12-31T15:34:27.325Z,14.60
2022-12-31T15:36:57.110Z,14.50
2022-12-31T15:39:46.034Z,14.50
2022-12-31T15:42:38.203Z,14.40
2022-12-31T15:45:11.727Z,14.40
2022-12-31T15:47:43.938Z,14.40
2022-12-31T15:50:29.232Z,14.40
2022-12-31T15:53:00.126Z,14.50
2022-12-31T15:55:33.970Z,14.40
2022-12-31T15:58:09.989Z,14.40
2022-12-31T16:01:16.651Z,14.30
2022-12-31T16:03:47.653Z,14.30
2022-12-31T16:06:16.603Z,14.30
2022-12-31T16:08:49.689Z,14.30
2022-12-31T16:11:16.887Z,14.30
2022-12-31T16:13:49.121Z,14.30
2022-12-31T16:16:25.831Z,14.30
2022-12-31T16:18:53.245Z,14.30
2022-12-31T16:21:38.934Z,14.30
2022-12-31T16:24:26.701Z,14.10
2022-12-31T16:26:56.585Z,14.30
2022-12-31T16:29:24.688Z,14.30
2022-12-31T16:31:53.605Z,14.20
2022-12-31T16:34:23.385Z,14.20
2022-12-31T16:37:05.458Z,14.20
2022-12-31T16:39:36.793Z,14.20
2022-12-31T16:42:19.925Z,14.20
2022-12-31T16:44:48.754Z,14.10
2022-12-31T16:47:39.844Z,14.10
2022-12-31T16:50:20.309Z,14.10
2022-12-31T16:52:50.487Z,14.90
2022-12-31T16:55:23.332Z,14.10
2022-12-31T16:57:57.840Z,14.20
2022-12-31T17:00:26.163Z,14.10
2022-12-31T17:03:08.930Z,14.10
2022-12-31T17:05:58.753Z,14.10
2022-12-31T17:08:28.755Z,14.00
2022-12-31T17:10:56.492Z,14.00
2022-12-31T17:13:29.802Z,14.00
2022-12-31T17:15:58.360Z,14.00
2022-12-31T17:18:28.669Z,13.90
2022-12-31T17:21:03.836Z,13.90
2022-12-31T17:23:35.215Z,13.90
2022-12-31T17:26:14.012Z,14.00
2022-12-31T17:28:47.872Z,13.90
2022-12-31T17:31:35.107Z,13.90
2022-12-31T17:34:13.748Z,13.90
2022-12-31T17:36:41.872Z,13.90
2022-12-31T17:39:19.370Z,14.00
2022-12-31T17:41:46.924Z,14.00
2022-12-31T17:44:19.822Z,13.90
2022-12-31T17:46:47.652Z,14.00
2022-12-31T17:49:14.509Z,14.00
2022-12-31T17:51:47.362Z,14.10
2022-12-31T17:54:16.013Z,14.20
2022-12-31T17:56:43.465Z,14.20
2022-12-31T17:59:18.957Z,14.20
2022-12-31T18:01:45.873Z,14.20
2022-12-31T18:04:17.495Z,14.10
2022-12-31T18:06:44.636Z,14.10
2022-12-31T18:09:11.857Z,14.10
2022-12-31T18:11:40.721Z,14.10
2022-12-31T18:14:07.967Z,14.10
2022-12-31T18:16:34.798Z,14.10
2022-12-31T18:19:01.752Z,14.10
2022-12-31T18:21:34.441Z,14.20
2022-12-31T18:26:29.400Z,14.30
2022-12-31T18:28:58.270Z,14.40
2022-12-31T18:31:27.780Z,14.50
2022-12-31T18:33:56.153Z,14.50
2022-12-31T18:36:24.056Z,14.60
2022-12-31T18:38:51.424Z,14.60
2022-12-31T18:41:20.475Z,14.60
2022-12-31T18:43:47.426Z,14.60
2022-12-31T18:46:16.731Z,14.70
2022-12-31T18:48:44.220Z,14.60
2022-12-31T18:51:14.973Z,14.70
2022-12-31T18:53:41.732Z,14.70
2022-12-31T18:56:20.599Z,14.70
2022-12-31T18:58:47.984Z,14.70
2022-12-31T19:01:26.235Z,14.70
2022-12-31T19:03:58.266Z,14.70
2022-12-31T19:06:25.167Z,14.80
2022-12-31T19:08:51.917Z,14.80
2022-12-31T19:11:19.177Z,14.80
2022-12-31T19:13:46.329Z,14.80
2022-12-31T19:16:14.047Z,14.80
2022-12-31T19:18:41.784Z,14.80
2022-12-31T19:21:16.388Z,14.80
2022-12-31T19:23:43.113Z,14.80
2022-12-31T19:26:18.291Z,14.70
2022-12-31T19:28:45.923Z,14.80
2022-12-31T19:31:13.549Z,14.80
2022-12-31T19:33:40.312Z,14.90
2022-12-31T19:36:13.205Z,14.90
2022-12-31T19:38:39.881Z,14.90
2022-12-31T19:41:15.027Z,14.80
2022-12-31T19:43:41.835Z,14.90
2022-12-31T19:46:13.008Z,14.90
2022-12-31T19:48:39.856Z,14.90
2022-12-31T19:51:16.623Z,14.90
2022-12-31T19:53:43.618Z,14.80
2022-12-31T19:56:13.934Z,14.80
2022-12-31T19:58:40.898Z,14.80
2022-12-31T20:01:09.340Z,14.90
2022-12-31T20:03:36.171Z,14.90
2022-12-31T20:06:08.244Z,14.90
2022-12-31T20:08:37.054Z,14.90
2022-12-31T20:11:08.484Z,15.00
2022-12-31T20:13:36.719Z,15.10
2022-12-31T20:16:05.774Z,15.10
2022-12-31T20:18:32.512Z,15.10
2022-12-31T20:20:59.128Z,15.00
2022-12-31T20:23:25.710Z,15.10
2022-12-31T20:25:59.495Z,15.10
2022-12-31T20:28:26.263Z,15.10
2022-12-31T20:30:53.053Z,15.10
2022-12-31T20:33:19.960Z,15.00
2022-12-31T20:35:46.880Z,15.20
2022-12-31T20:38:13.494Z,15.20
2022-12-31T20:40:46.179Z,15.30
2022-12-31T20:43:13.484Z,15.30
2022-12-31T20:45:41.342Z,15.40
2022-12-31T20:48:08.396Z,15.40
2022-12-31T20:50:35.136Z,15.40
2022-12-31T20:53:02.155Z,15.40
2022-12-31T20:55:30.695Z,15.40
2022-12-31T20:57:57.542Z,15.30
2022-12-31T21:00:24.468Z,15.40
2022-12-31T21:03:00.280Z,15.40
2022-12-31T21:05:27.530Z,15.40
2022-12-31T21:07:54.459Z,15.40
2022-12-31T21:10:21.167Z,15.40
2022-12-31T21:12:53.187Z,15.50
2022-12-31T21:15:21.223Z,15.50
2022-12-31T21:17:47.830Z,15.50
2022-12-31T21:20:14.445Z,15.50
2022-12-31T21:22:41.078Z,15.50
2022-12-31T21:25:07.985Z,18.40
2022-12-31T21:27:35.816Z,15.50
2022-12-31T21:30:18.481Z,15.50
2022-12-31T21:32:46.115Z,14.20
2022-12-31T21:38:06.719Z,15.60
2022-12-31T21:40:33.634Z,15.60
2022-12-31T21:43:00.499Z,15.60
2022-12-31T21:45:27.377Z,15.70
2022-12-31T21:48:12.700Z,15.60
2022-12-31T21:50:39.586Z,15.60
2022-12-31T21:53:06.204Z,15.60
2022-12-31T21:55:51.593Z,15.70
2022-12-31T21:58:27.430Z,15.70
2022-12-31T22:01:14.699Z,15.70
2022-12-31T22:03:41.753Z,15.70
2022-12-31T22:06:23.160Z,15.80
2022-12-31T22:08:51.554Z,15.70
2022-12-31T22:11:19.406Z,15.80
2022-12-31T22:13:47.203Z,15.80
2022-12-31T22:16:14.421Z,15.80
2022-12-31T22:18:42.979Z,15.80
2022-12-31T22:21:18.328Z,15.80
2022-12-31T22:23:46.245Z,15.80
2022-12-31T22:26:15.376Z,15.80
2022-12-31T22:28:43.176Z,15.80
2022-12-31T22:31:14.283Z,15.80
2022-12-31T22:33:41.615Z,15.90
2022-12-31T22:36:12.242Z,15.80
2022-12-31T22:38:38.943Z,15.80
2022-12-31T22:41:12.464Z,15.80
2022-12-31T22:43:43.768Z,15.80
2022-12-31T22:46:13.723Z,15.80
2022-12-31T22:48:40.984Z,15.90
2022-12-31T22:51:08.777Z,15.90
2022-12-31T22:53:36.261Z,15.90
2022-12-31T22:56:02.888Z,15.90
2022-12-31T22:58:29.705Z,15.90
2022-12-31T23:00:56.498Z,15.90
2022-12-31T23:03:23.179Z,15.90
2022-12-31T23:05:54.204Z,16.00
2022-12-31T23:08:23.621Z,16.00
2022-12-31T23:11:05.348Z,16.00
2022-12-31T23:13:56.638Z,16.00
2022-12-31T23:16:43.321Z,16.00
2022-12-31T23:19:28.867Z,16.00
2022-12-31T23:22:14.170Z,16.10
2022-12-31T23:24:41.327Z,16.10
2022-12-31T23:27:09.157Z,16.10
2022-12-31T23:29:45.548Z,16.10
2022-12-31T23:32:13.543Z,16.10
2022-12-31T23:34:40.260Z,16.10
2022-12-31T23:37:06.890Z,16.10
2022-12-31T23:39:33.604Z,16.20
2022-12-31T23:42:01.016Z,16.10
2022-12-31T23:44:28.410Z,16.20
2022-12-31T23:46:55.776Z,16.10
2022-12-31T23:49:22.630Z,16.20
2022-12-31T23:51:49.276Z,16.20
2022-12-31T23:54:16.028Z,16.20
2022-12-31T23:56:42.676Z,16.20
2022-12-31T23:59:10.697Z,16.30
